Time;durP1;ratioP1;P1;durP2;ratioP2;P2;SDS_P1;SDS_P2;PMS_P1;PMS_P2;Temp;Humidity;BMP_temperature;BMP_pressure;BME280_temperature;BME280_humidity;BME280_pressure;Samples;Min_cycle;Max_cycle;Signal;HPM_P1;HPM_P2
2023/10/21 00:01:15;;;;;;;1.08;1.00;;;;;;;;;;5072655;28;20506;-80
2023/10/21 00:03:42;;;;;;;2.33;1.33;;;;;;;;;;5060264;28;20506;-80
2023/10/21 00:06:10;;;;;;;1.40;1.27;;;;;;;;;;5053298;28;20435;-81
2023/10/21 00:08:37;;;;;;;1.75;1.20;;;;;;;;;;5095789;28;20430;-81
2023/10/21 00:11:05;;;;;;;1.17;1.08;;;;;;;;;;5085860;28;20439;-80
2023/10/21 00:13:32;;;;;;;1.70;1.00;;;;;;;;;;5077453;28;20519;-80
2023/10/21 00:16:00;;;;;;;3.20;1.27;;;;;;;;;;5082249;28;21462;-80
2023/10/21 00:18:27;;;;;;;1.05;1.05;;;;;;;;;;5075429;28;20429;-81
2023/10/21 00:20:54;;;;;;;1.05;1.05;;;;;;;;;;5076625;28;20723;-80
2023/10/21 00:23:22;;;;;;;1.83;1.10;;;;;;;;;;5090368;28;20429;-80
2023/10/21 00:25:50;;;;;;;1.27;1.17;;;;;;;;;;5085743;28;20440;-80
2023/10/21 00:28:17;;;;;;;1.30;1.00;;;;;;;;;;5092805;28;20778;-80
2023/10/21 00:30:45;;;;;;;1.10;1.00;;;;;;;;;;5062976;28;20514;-80
2023/10/21 00:33:13;;;;;;;1.55;0.95;;;;;;;;;;5098851;28;20434;-80
2023/10/21 00:35:45;;;;;;;1.20;0.87;;;;;;;;;;5069136;28;20431;-81
2023/10/21 00:38:13;;;;;;;0.70;0.70;;;;;;;;;;5093083;28;20459;-81
2023/10/21 00:41:09;;;;;;;1.40;0.85;;;;;;;;;;5075881;28;20518;-80
2023/10/21 00:43:38;;;;;;;0.60;0.60;;;;;;;;;;5081528;28;20514;-81
2023/10/21 00:46:15;;;;;;;2.80;1.00;;;;;;;;;;5092389;28;20430;-80
2023/10/21 00:48:43;;;;;;;0.70;0.70;;;;;;;;;;5083973;28;20442;-81
2023/10/21 00:51:15;;;;;;;1.53;0.60;;;;;;;;;;5063807;28;20423;-81
2023/10/21 00:53:42;;;;;;;1.70;0.85;;;;;;;;;;5083548;27;20450;-80
2023/10/21 00:56:12;;;;;;;0.80;0.70;;;;;;;;;;5077740;28;21112;-82
2023/10/21 00:58:42;;;;;;;2.75;0.50;;;;;;;;;;5093398;28;20990;-80
2023/10/21 01:01:10;;;;;;;0.40;0.40;;;;;;;;;;5074244;28;20460;-81
2023/10/21 01:03:38;;;;;;;0.60;0.60;;;;;;;;;;5084472;28;20435;-81
2023/10/21 01:06:09;;;;;;;1.07;0.50;;;;;;;;;;5085299;28;21327;-80
2023/10/21 01:08:42;;;;;;;1.02;0.50;;;;;;;;;;5088392;28;20914;-81
2023/10/21 01:11:13;;;;;;;0.57;0.50;;;;;;;;;;5093526;28;20446;-82
2023/10/21 01:13:43;;;;;;;0.57;0.57;;;;;;;;;;5072200;28;20437;-82
2023/10/21 01:16:10;;;;;;;1.00;0.40;;;;;;;;;;5080050;28;20455;-81
2023/10/21 01:18:45;;;;;;;0.40;0.40;;;;;;;;;;5064877;28;20519;-81
2023/10/21 01:21:15;;;;;;;0.60;0.60;;;;;;;;;;5080630;28;20774;-81
2023/10/21 01:23:42;;;;;;;0.90;0.40;;;;;;;;;;5062299;28;20435;-82
2023/10/21 01:26:16;;;;;;;0.60;0.60;;;;;;;;;;5062327;28;20466;-82
2023/10/21 01:28:43;;;;;;;1.33;0.40;;;;;;;;;;5068822;28;20510;-82
2023/10/21 01:31:10;;;;;;;0.40;0.40;;;;;;;;;;5088528;28;20437;-81
2023/10/21 01:33:37;;;;;;;3.10;0.47;;;;;;;;;;5083573;28;20500;-82
2023/10/21 01:36:05;;;;;;;0.35;0.35;;;;;;;;;;5078712;28;20431;-81
2023/10/21 01:38:35;;;;;;;1.90;0.50;;;;;;;;;;5085210;27;20432;-81
2023/10/21 01:41:02;;;;;;;0.40;0.40;;;;;;;;;;5077863;28;20430;-82
2023/10/21 01:43:30;;;;;;;0.68;0.40;;;;;;;;;;5073388;28;20433;-81
2023/10/21 01:46:06;;;;;;;0.35;0.35;;;;;;;;;;5066908;28;21671;-81
2023/10/21 01:48:33;;;;;;;0.30;0.30;;;;;;;;;;5087222;28;20429;-82
2023/10/21 01:51:04;;;;;;;1.10;0.30;;;;;;;;;;5047921;28;20799;-82
2023/10/21 01:53:32;;;;;;;0.30;0.30;;;;;;;;;;5062617;28;20637;-81
2023/10/21 01:56:00;;;;;;;0.40;0.40;;;;;;;;;;5062901;28;20431;-81
2023/10/21 01:58:29;;;;;;;1.00;0.30;;;;;;;;;;5069109;28;20513;-81
2023/10/21 02:00:56;;;;;;;0.57;0.40;;;;;;;;;;5062347;28;20455;-81
2023/10/21 02:03:24;;;;;;;0.93;0.30;;;;;;;;;;5067528;28;20437;-81
2023/10/21 02:05:54;;;;;;;0.30;0.30;;;;;;;;;;5060916;28;20797;-81
2023/10/21 02:08:24;;;;;;;2.70;0.30;;;;;;;;;;5039928;28;20435;-80
2023/10/21 02:10:52;;;;;;;0.30;0.30;;;;;;;;;;5045290;28;21052;-81
2023/10/21 02:13:19;;;;;;;0.20;0.20;;;;;;;;;;5067315;28;20427;-80
2023/10/21 02:15:46;;;;;;;0.20;0.20;;;;;;;;;;5064187;28;20459;-81
2023/10/21 02:18:14;;;;;;;0.30;0.20;;;;;;;;;;5048984;28;20861;-81
2023/10/21 02:20:41;;;;;;;0.40;0.30;;;;;;;;;;5067800;28;20471;-81
2023/10/21 02:23:11;;;;;;;0.30;0.20;;;;;;;;;;5045639;28;20941;-79
2023/10/21 02:25:38;;;;;;;0.80;0.30;;;;;;;;;;5047242;28;21011;-81
2023/10/21 02:28:06;;;;;;;0.20;0.20;;;;;;;;;;5062059;28;20434;-82
2023/10/21 02:30:33;;;;;;;0.32;0.30;;;;;;;;;;5064603;28;20465;-80
2023/10/21 02:33:03;;;;;;;0.17;0.17;;;;;;;;;;5066421;28;20535;-81
2023/10/21 02:35:33;;;;;;;0.15;0.15;;;;;;;;;;5055336;28;20520;-80
2023/10/21 02:38:00;;;;;;;0.40;0.10;;;;;;;;;;5042888;28;20436;-80
2023/10/21 02:40:27;;;;;;;0.50;0.20;;;;;;;;;;5067972;28;20987;-81
2023/10/21 02:42:57;;;;;;;0.60;0.10;;;;;;;;;;5065405;28;20436;-81
2023/10/21 02:45:28;;;;;;;1.15;0.10;;;;;;;;;;5075270;28;20510;-80
2023/10/21 02:47:55;;;;;;;0.60;0.10;;;;;;;;;;5064276;28;20434;-80
2023/10/21 02:50:23;;;;;;;1.40;0.10;;;;;;;;;;5065150;28;20428;-81
2023/10/21 02:52:53;;;;;;;0.60;0.20;;;;;;;;;;5048578;28;20423;-81
2023/10/21 02:55:20;;;;;;;0.65;0.20;;;;;;;;;;5044679;28;20992;-80
2023/10/21 02:57:47;;;;;;;0.80;0.10;;;;;;;;;;5046919;28;20870;-80
2023/10/21 03:00:17;;;;;;;0.50;0.10;;;;;;;;;;5043633;28;20542;-81
2023/10/21 03:02:45;;;;;;;0.80;0.30;;;;;;;;;;5064206;28;20917;-80
2023/10/21 03:05:12;;;;;;;0.22;0.15;;;;;;;;;;5043021;28;20423;-81
2023/10/21 03:07:39;;;;;;;0.20;0.20;;;;;;;;;;5041466;28;20456;-80
2023/10/21 03:10:07;;;;;;;0.30;0.20;;;;;;;;;;5059385;28;20564;-81
2023/10/21 03:12:34;;;;;;;1.10;0.20;;;;;;;;;;5064260;28;20453;-81
2023/10/21 03:15:01;;;;;;;0.70;0.20;;;;;;;;;;5050468;28;20471;-80
2023/10/21 03:17:30;;;;;;;0.40;0.20;;;;;;;;;;5043244;28;20431;-80
2023/10/21 03:19:57;;;;;;;0.30;0.30;;;;;;;;;;5063543;28;20434;-80
2023/10/21 03:22:27;;;;;;;0.20;0.20;;;;;;;;;;5068068;28;20463;-80
2023/10/21 03:24:54;;;;;;;0.10;0.10;;;;;;;;;;5068755;28;20442;-80
2023/10/21 03:27:25;;;;;;;0.20;0.20;;;;;;;;;;5067515;28;20792;-81
2023/10/21 03:29:52;;;;;;;0.20;0.20;;;;;;;;;;5049921;28;20431;-80
2023/10/21 03:32:19;;;;;;;0.23;0.23;;;;;;;;;;5047177;28;20505;-81
2023/10/21 03:34:46;;;;;;;0.60;0.20;;;;;;;;;;5047818;28;20483;-80
2023/10/21 03:37:13;;;;;;;0.50;0.30;;;;;;;;;;5057700;28;20490;-81
2023/10/21 03:39:41;;;;;;;0.20;0.20;;;;;;;;;;5046580;28;20650;-80
2023/10/21 03:42:08;;;;;;;0.80;0.30;;;;;;;;;;5049622;28;20448;-81
2023/10/21 03:44:38;;;;;;;0.30;0.30;;;;;;;;;;5066563;28;20489;-81
2023/10/21 03:47:05;;;;;;;0.30;0.30;;;;;;;;;;5057937;28;20435;-81
2023/10/21 03:49:33;;;;;;;0.60;0.30;;;;;;;;;;5063257;28;20560;-80
2023/10/21 03:52:00;;;;;;;0.40;0.40;;;;;;;;;;5044895;28;20461;-80
2023/10/21 03:54:29;;;;;;;0.98;0.30;;;;;;;;;;5067342;28;20439;-80
2023/10/21 03:56:59;;;;;;;1.10;0.40;;;;;;;;;;5067369;28;20445;-81
2023/10/21 03:59:26;;;;;;;1.40;0.20;;;;;;;;;;5065068;28;20887;-80
2023/10/21 04:01:53;;;;;;;1.10;0.40;;;;;;;;;;5068463;28;20830;-81
2023/10/21 04:04:20;;;;;;;0.30;0.30;;;;;;;;;;5080194;28;20522;-80
2023/10/21 04:06:48;;;;;;;1.90;0.32;;;;;;;;;;5068618;28;20534;-80
2023/10/21 04:09:15;;;;;;;0.25;0.20;;;;;;;;;;5075745;28;20438;-80
2023/10/21 04:11:45;;;;;;;0.27;0.27;;;;;;;;;;5067463;28;20443;-80
2023/10/21 04:14:12;;;;;;;0.20;0.20;;;;;;;;;;5047383;28;20937;-80
2023/10/21 04:16:44;;;;;;;0.50;0.30;;;;;;;;;;5053230;28;20432;-80
2023/10/21 04:19:11;;;;;;;1.60;0.20;;;;;;;;;;5060030;28;20462;-80
2023/10/21 04:21:39;;;;;;;0.50;0.20;;;;;;;;;;5072028;28;20518;-80
2023/10/21 04:24:06;;;;;;;0.20;0.20;;;;;;;;;;5064539;28;20430;-80
2023/10/21 04:26:34;;;;;;;0.50;0.30;;;;;;;;;;5046720;28;20431;-80
2023/10/21 04:29:01;;;;;;;1.30;0.40;;;;;;;;;;5069418;28;20436;-81
2023/10/21 04:31:38;;;;;;;0.40;0.40;;;;;;;;;;5050017;28;20463;-81
2023/10/21 04:34:06;;;;;;;0.30;0.22;;;;;;;;;;5049462;28;20442;-79
2023/10/21 04:36:33;;;;;;;0.75;0.40;;;;;;;;;;5048831;28;20423;-80
2023/10/21 04:39:00;;;;;;;0.50;0.30;;;;;;;;;;5065610;28;20523;-80
2023/10/21 04:41:27;;;;;;;0.40;0.40;;;;;;;;;;5046892;28;20527;-80
2023/10/21 04:43:57;;;;;;;0.70;0.60;;;;;;;;;;5066873;28;20437;-80
2023/10/21 04:46:25;;;;;;;0.43;0.30;;;;;;;;;;5072615;28;20462;-80
2023/10/21 04:48:52;;;;;;;0.32;0.32;;;;;;;;;;5071879;28;20493;-80
2023/10/21 04:51:20;;;;;;;3.90;0.40;;;;;;;;;;5045447;28;20941;-79
2023/10/21 04:53:47;;;;;;;0.82;0.40;;;;;;;;;;5068622;28;20429;-80
2023/10/21 04:56:14;;;;;;;0.40;0.38;;;;;;;;;;5045209;28;20431;-80
2023/10/21 04:58:41;;;;;;;0.40;0.40;;;;;;;;;;5063224;28;20437;-80
2023/10/21 05:01:10;;;;;;;0.40;0.40;;;;;;;;;;5063100;28;20431;-80
2023/10/21 05:03:37;;;;;;;0.60;0.47;;;;;;;;;;5048625;28;20450;-80
2023/10/21 05:06:05;;;;;;;0.73;0.38;;;;;;;;;;5052542;28;20437;-79
2023/10/21 05:08:33;;;;;;;0.88;0.45;;;;;;;;;;5040269;28;20433;-78
2023/10/21 05:11:06;;;;;;;0.60;0.40;;;;;;;;;;5062427;28;20423;-80
2023/10/21 05:13:33;;;;;;;0.88;0.40;;;;;;;;;;5065827;28;20929;-80
2023/10/21 05:16:00;;;;;;;0.50;0.40;;;;;;;;;;5065068;28;20443;-80
2023/10/21 05:18:28;;;;;;;0.60;0.40;;;;;;;;;;5054562;28;20442;-80
2023/10/21 05:20:55;;;;;;;0.60;0.43;;;;;;;;;;5065961;28;21064;-80
2023/10/21 05:23:22;;;;;;;0.55;0.55;;;;;;;;;;5064739;28;20438;-80
2023/10/21 05:25:49;;;;;;;0.70;0.50;;;;;;;;;;5066575;28;20506;-80
2023/10/21 05:28:17;;;;;;;0.50;0.50;;;;;;;;;;5070202;28;20522;-80
2023/10/21 05:30:44;;;;;;;1.60;0.60;;;;;;;;;;5075559;28;20466;-80
2023/10/21 05:33:11;;;;;;;0.95;0.50;;;;;;;;;;5042178;28;20427;-80
2023/10/21 05:35:39;;;;;;;1.02;0.50;;;;;;;;;;5065719;28;20437;-80
2023/10/21 05:38:07;;;;;;;0.50;0.50;;;;;;;;;;5045182;28;20435;-80
2023/10/21 05:40:35;;;;;;;1.30;0.40;;;;;;;;;;5069761;28;20511;-80
2023/10/21 05:43:02;;;;;;;0.30;0.30;;;;;;;;;;5073995;28;21010;-80
2023/10/21 05:45:29;;;;;;;0.50;0.50;;;;;;;;;;5044093;28;20435;-80
2023/10/21 05:47:56;;;;;;;0.60;0.40;;;;;;;;;;5062356;28;20508;-80
2023/10/21 05:50:25;;;;;;;1.00;0.30;;;;;;;;;;5045977;28;20438;-80
2023/10/21 05:52:52;;;;;;;1.10;0.50;;;;;;;;;;5046693;28;21203;-80
2023/10/21 05:55:20;;;;;;;1.10;0.60;;;;;;;;;;5066228;28;20518;-80
2023/10/21 05:57:47;;;;;;;2.15;0.38;;;;;;;;;;5077569;28;20516;-82
2023/10/21 06:00:15;;;;;;;0.60;0.40;;;;;;;;;;5058304;28;20447;-80
2023/10/21 06:02:42;;;;;;;1.40;0.30;;;;;;;;;;5054693;28;21036;-81
2023/10/21 06:05:09;;;;;;;2.15;0.30;;;;;;;;;;5062886;28;20438;-79
2023/10/21 06:07:36;;;;;;;0.45;0.30;;;;;;;;;;5059706;28;20437;-81
2023/10/21 06:10:04;;;;;;;0.20;0.20;;;;;;;;;;5057806;28;20589;-80
2023/10/21 06:12:32;;;;;;;0.60;0.40;;;;;;;;;;5057396;28;20637;-81
2023/10/21 06:15:03;;;;;;;1.40;0.30;;;;;;;;;;5069496;28;20452;-81
2023/10/21 06:17:30;;;;;;;0.40;0.28;;;;;;;;;;5063363;28;20438;-81
2023/10/21 06:19:58;;;;;;;0.40;0.25;;;;;;;;;;5060063;28;20477;-81
2023/10/21 06:22:29;;;;;;;0.30;0.30;;;;;;;;;;5068997;28;20500;-80
2023/10/21 06:24:59;;;;;;;0.93;0.60;;;;;;;;;;5068669;28;20461;-80
2023/10/21 06:27:26;;;;;;;0.20;0.20;;;;;;;;;;5065461;28;20831;-81
2023/10/21 06:29:53;;;;;;;1.57;0.60;;;;;;;;;;5071527;28;21199;-81
2023/10/21 06:32:20;;;;;;;2.20;0.30;;;;;;;;;;5057591;28;20437;-80
2023/10/21 06:34:47;;;;;;;0.20;0.20;;;;;;;;;;5066175;28;20435;-81
2023/10/21 06:37:15;;;;;;;0.30;0.30;;;;;;;;;;5045165;28;20447;-83
2023/10/21 06:39:48;;;;;;;0.30;0.30;;;;;;;;;;5046078;28;20437;-80
2023/10/21 06:42:15;;;;;;;0.30;0.30;;;;;;;;;;5047284;28;20439;-81
2023/10/21 06:44:42;;;;;;;0.55;0.40;;;;;;;;;;5061340;28;20444;-81
2023/10/21 06:47:10;;;;;;;0.50;0.20;;;;;;;;;;5080772;28;20488;-81
2023/10/21 06:49:37;;;;;;;0.30;0.30;;;;;;;;;;5053114;28;20439;-80
2023/10/21 06:52:05;;;;;;;0.40;0.30;;;;;;;;;;5064545;28;21001;-82
2023/10/21 06:54:32;;;;;;;0.55;0.30;;;;;;;;;;5075787;28;20536;-82
2023/10/21 06:56:59;;;;;;;0.30;0.30;;;;;;;;;;5062790;28;20916;-80
2023/10/21 06:59:29;;;;;;;0.60;0.30;;;;;;;;;;5043230;28;20448;-81
2023/10/21 07:01:56;;;;;;;0.40;0.30;;;;;;;;;;5057355;28;20435;-81
2023/10/21 07:04:23;;;;;;;0.30;0.30;;;;;;;;;;5080987;28;20436;-82
2023/10/21 07:06:50;;;;;;;0.40;0.40;;;;;;;;;;5057461;28;21253;-83
2023/10/21 07:09:17;;;;;;;0.82;0.38;;;;;;;;;;5058321;28;20441;-81
2023/10/21 07:11:45;;;;;;;0.20;0.20;;;;;;;;;;5040966;28;20436;-82
2023/10/21 07:14:12;;;;;;;0.17;0.15;;;;;;;;;;5036898;28;20435;-81
2023/10/21 07:16:40;;;;;;;0.50;0.38;;;;;;;;;;5031730;28;20437;-79
2023/10/21 07:19:07;;;;;;;1.00;0.43;;;;;;;;;;5038171;28;23101;-80
2023/10/21 07:21:35;;;;;;;0.45;0.45;;;;;;;;;;5039996;28;20504;-80
2023/10/21 07:24:08;;;;;;;0.90;0.30;;;;;;;;;;5044240;28;20789;-80
2023/10/21 07:26:35;;;;;;;0.30;0.30;;;;;;;;;;5043918;28;21124;-80
2023/10/21 07:29:02;;;;;;;1.00;0.30;;;;;;;;;;5034989;28;20458;-80
2023/10/21 07:31:29;;;;;;;0.90;0.40;;;;;;;;;;5041299;28;20444;-79
2023/10/21 07:33:57;;;;;;;1.38;0.28;;;;;;;;;;5060478;28;20467;-80
2023/10/21 07:36:24;;;;;;;0.80;0.40;;;;;;;;;;5035890;28;20915;-81
2023/10/21 07:38:52;;;;;;;0.90;0.30;;;;;;;;;;5060345;28;20444;-81
2023/10/21 07:41:21;;;;;;;1.42;0.40;;;;;;;;;;5047538;28;20428;-80
2023/10/21 07:43:48;;;;;;;0.50;0.30;;;;;;;;;;5041286;28;20497;-80
2023/10/21 07:46:16;;;;;;;1.05;0.45;;;;;;;;;;5070781;28;20467;-80
2023/10/21 07:48:44;;;;;;;0.30;0.30;;;;;;;;;;5061321;28;20839;-80
2023/10/21 07:51:12;;;;;;;0.60;0.33;;;;;;;;;;5041346;28;20593;-80
2023/10/21 07:53:40;;;;;;;0.38;0.30;;;;;;;;;;5037307;28;20432;-80
2023/10/21 07:56:07;;;;;;;0.30;0.30;;;;;;;;;;5045357;28;20431;-80
2023/10/21 07:58:35;;;;;;;0.20;0.20;;;;;;;;;;5058862;28;20427;-80
2023/10/21 08:01:03;;;;;;;1.30;0.32;;;;;;;;;;5074898;28;20764;-79
2023/10/21 08:03:30;;;;;;;0.22;0.22;;;;;;;;;;5063154;28;20437;-80
2023/10/21 08:05:57;;;;;;;0.40;0.40;;;;;;;;;;5044283;28;20897;-80
2023/10/21 08:08:25;;;;;;;0.55;0.35;;;;;;;;;;5041907;28;20439;-81
2023/10/21 08:10:52;;;;;;;0.80;0.30;;;;;;;;;;5057604;28;20503;-81
2023/10/21 08:13:21;;;;;;;0.57;0.40;;;;;;;;;;5060043;28;20434;-82
2023/10/21 08:15:48;;;;;;;3.30;0.75;;;;;;;;;;5062432;28;20439;-81
2023/10/21 08:18:15;;;;;;;0.80;0.30;;;;;;;;;;5054079;28;20799;-81
2023/10/21 08:20:43;;;;;;;1.65;0.40;;;;;;;;;;5057072;28;20431;-81
2023/10/21 08:23:11;;;;;;;1.23;0.40;;;;;;;;;;5056437;28;20477;-81
2023/10/21 08:25:38;;;;;;;0.63;0.38;;;;;;;;;;5063271;28;20438;-81
2023/10/21 08:28:07;;;;;;;1.42;0.60;;;;;;;;;;5045361;28;20511;-81
2023/10/21 08:30:36;;;;;;;1.40;0.40;;;;;;;;;;5043890;28;20844;-80
2023/10/21 08:33:06;;;;;;;0.60;0.40;;;;;;;;;;5043127;28;20421;-81
2023/10/21 08:35:34;;;;;;;2.95;0.63;;;;;;;;;;5051948;28;20794;-82
2023/10/21 08:38:01;;;;;;;1.00;0.30;;;;;;;;;;5049879;28;20531;-82
2023/10/21 08:40:30;;;;;;;1.73;0.50;;;;;;;;;;5049691;28;20445;-81
2023/10/21 08:43:03;;;;;;;1.58;0.47;;;;;;;;;;5055999;28;20466;-83
2023/10/21 08:45:35;;;;;;;0.55;0.30;;;;;;;;;;5052899;28;20577;-82
2023/10/21 08:48:03;;;;;;;1.35;0.30;;;;;;;;;;5045572;28;20420;-81
2023/10/21 08:50:35;;;;;;;0.80;0.30;;;;;;;;;;5052043;28;20477;-82
2023/10/21 08:53:05;;;;;;;4.50;0.40;;;;;;;;;;5054516;28;20428;-82
2023/10/21 08:55:38;;;;;;;2.85;0.60;;;;;;;;;;5060881;28;20711;-83
2023/10/21 08:58:10;;;;;;;0.82;0.30;;;;;;;;;;5062956;28;20518;-83
2023/10/21 09:00:38;;;;;;;1.35;0.60;;;;;;;;;;5059342;28;20439;-83
2023/10/21 09:03:08;;;;;;;1.23;0.32;;;;;;;;;;5046585;28;20446;-82
2023/10/21 09:05:58;;;;;;;1.85;0.45;;;;;;;;;;5072862;28;20450;-83
2023/10/21 09:08:31;;;;;;;1.17;0.67;;;;;;;;;;5043105;28;20937;-83
2023/10/21 09:10:59;;;;;;;1.48;0.50;;;;;;;;;;5062337;28;20435;-82
2023/10/21 09:13:34;;;;;;;0.60;0.45;;;;;;;;;;5067595;28;20915;-81
2023/10/21 09:16:04;;;;;;;0.43;0.43;;;;;;;;;;5059019;28;20447;-82
2023/10/21 09:18:37;;;;;;;2.40;0.40;;;;;;;;;;5070218;28;20427;-81
2023/10/21 09:21:05;;;;;;;1.40;0.52;;;;;;;;;;5070373;28;20480;-81
2023/10/21 09:23:32;;;;;;;0.80;0.40;;;;;;;;;;5035596;28;20431;-82
2023/10/21 09:25:59;;;;;;;1.30;0.50;;;;;;;;;;5060219;28;20439;-82
2023/10/21 09:28:27;;;;;;;1.15;0.50;;;;;;;;;;5069123;28;21118;-80
2023/10/21 09:30:58;;;;;;;1.05;0.40;;;;;;;;;;5059110;28;21017;-82
2023/10/21 09:33:30;;;;;;;0.70;0.40;;;;;;;;;;5052542;28;20494;-83
2023/10/21 09:36:01;;;;;;;1.35;0.40;;;;;;;;;;5062303;28;20439;-82
2023/10/21 09:38:40;;;;;;;1.40;0.50;;;;;;;;;;5054904;28;20443;-81
2023/10/21 09:41:08;;;;;;;1.55;0.47;;;;;;;;;;5030260;28;20513;-83
2023/10/21 09:43:40;;;;;;;0.60;0.60;;;;;;;;;;5058278;28;20917;-83
2023/10/21 09:46:13;;;;;;;0.70;0.40;;;;;;;;;;5037120;28;20496;-82
2023/10/21 09:48:43;;;;;;;1.48;0.40;;;;;;;;;;5051977;28;20511;-82
2023/10/21 09:51:14;;;;;;;1.30;0.65;;;;;;;;;;5037428;28;20423;-82
2023/10/21 09:53:45;;;;;;;1.50;0.37;;;;;;;;;;5042409;28;20430;-81
2023/10/21 09:56:15;;;;;;;1.02;0.60;;;;;;;;;;5059322;28;20554;-82
2023/10/21 09:58:43;;;;;;;1.25;0.40;;;;;;;;;;5046580;28;20511;-82
2023/10/21 10:01:10;;;;;;;0.57;0.40;;;;;;;;;;5057347;28;20427;-81
2023/10/21 10:03:39;;;;;;;0.82;0.47;;;;;;;;;;5045555;28;20465;-81
2023/10/21 10:06:08;;;;;;;1.10;0.50;;;;;;;;;;5032454;28;21004;-79
2023/10/21 10:08:36;;;;;;;1.70;0.70;;;;;;;;;;5045250;28;20436;-83
2023/10/21 10:11:09;;;;;;;0.90;0.60;;;;;;;;;;5073608;28;20427;-83
2023/10/21 10:13:37;;;;;;;0.40;0.40;;;;;;;;;;5045611;28;20423;-83
2023/10/21 10:16:22;;;;;;;1.30;0.52;;;;;;;;;;5056756;28;20450;-85
2023/10/21 10:18:51;;;;;;;1.10;0.50;;;;;;;;;;5041508;28;20435;-84
2023/10/21 10:21:21;;;;;;;1.10;0.70;;;;;;;;;;5054812;28;20508;-84
2023/10/21 10:23:50;;;;;;;1.42;0.73;;;;;;;;;;5058116;28;20781;-83
2023/10/21 10:26:39;;;;;;;1.10;0.50;;;;;;;;;;5066404;28;20433;-83
2023/10/21 10:29:24;;;;;;;0.40;0.40;;;;;;;;;;5068998;28;20550;-83
2023/10/21 10:32:11;;;;;;;0.60;0.40;;;;;;;;;;5055027;28;20944;-83
2023/10/21 10:34:49;;;;;;;1.08;0.70;;;;;;;;;;5062339;28;20473;-83
2023/10/21 10:37:37;;;;;;;2.45;0.57;;;;;;;;;;5069292;28;20445;-83
2023/10/21 10:40:18;;;;;;;1.65;0.55;;;;;;;;;;5055920;28;20438;-82
2023/10/21 10:42:45;;;;;;;1.73;0.60;;;;;;;;;;5063953;28;20945;-84
2023/10/21 10:45:12;;;;;;;1.55;0.50;;;;;;;;;;5062168;28;20524;-90
2023/10/21 10:47:40;;;;;;;0.90;0.60;;;;;;;;;;5057926;28;20443;-86
2023/10/21 10:50:19;;;;;;;2.90;0.63;;;;;;;;;;5068887;28;20999;-90
2023/10/21 10:52:46;;;;;;;1.37;0.63;;;;;;;;;;5041064;28;20435;-89
2023/10/21 10:55:14;;;;;;;1.98;0.50;;;;;;;;;;5054271;28;20447;-79
2023/10/21 10:57:43;;;;;;;2.67;0.60;;;;;;;;;;5052991;28;20552;-81
2023/10/21 11:00:13;;;;;;;2.60;0.40;;;;;;;;;;5069336;28;20441;-80
2023/10/21 11:02:44;;;;;;;0.60;0.50;;;;;;;;;;5064554;28;20431;-81
2023/10/21 11:05:20;;;;;;;2.25;0.68;;;;;;;;;;5045152;28;20428;-79
2023/10/21 11:07:47;;;;;;;0.95;0.40;;;;;;;;;;5035852;28;20424;-80
2023/10/21 11:10:19;;;;;;;1.55;0.50;;;;;;;;;;5054833;28;20431;-80
2023/10/21 11:12:46;;;;;;;2.78;0.70;;;;;;;;;;5064242;28;20432;-81
2023/10/21 11:15:14;;;;;;;1.50;0.40;;;;;;;;;;5042340;28;20855;-80
2023/10/21 11:17:41;;;;;;;3.08;0.80;;;;;;;;;;5053919;28;20450;-79
2023/10/21 11:20:08;;;;;;;1.48;0.50;;;;;;;;;;5036418;28;20529;-79
2023/10/21 11:22:36;;;;;;;0.98;0.50;;;;;;;;;;5042932;28;20512;-80
2023/10/21 11:25:04;;;;;;;1.25;0.52;;;;;;;;;;5056858;28;20446;-80
2023/10/21 11:27:32;;;;;;;1.98;0.60;;;;;;;;;;5065894;28;20441;-80
2023/10/21 11:30:00;;;;;;;0.75;0.38;;;;;;;;;;5043483;28;20431;-79
2023/10/21 11:32:31;;;;;;;0.90;0.40;;;;;;;;;;5058084;28;20417;-80
2023/10/21 11:35:03;;;;;;;0.57;0.47;;;;;;;;;;5069007;28;20434;-82
2023/10/21 11:37:30;;;;;;;2.50;0.60;;;;;;;;;;5040993;28;20511;-81
2023/10/21 11:39:58;;;;;;;1.15;0.45;;;;;;;;;;5072983;28;20467;-81
2023/10/21 11:42:25;;;;;;;1.02;0.60;;;;;;;;;;5059034;28;20579;-82
2023/10/21 11:45:02;;;;;;;0.88;0.63;;;;;;;;;;5066030;28;20443;-82
2023/10/21 11:47:30;;;;;;;0.70;0.50;;;;;;;;;;5044786;28;20446;-82
2023/10/21 11:49:58;;;;;;;0.73;0.43;;;;;;;;;;5076356;28;20513;-81
2023/10/21 11:52:26;;;;;;;1.77;0.50;;;;;;;;;;5059414;28;20457;-81
2023/10/21 12:19:49;;;;;;;1.95;0.50;;;;;;;;;;5047113;28;20836;-81
2023/10/21 12:35:59;;;;;;;2.10;0.63;;;;;;;;;;5064109;28;20805;-80
2023/10/21 12:38:51;;;;;;;0.90;0.50;;;;;;;;;;5039283;28;20439;-80
2023/10/21 12:41:26;;;;;;;1.05;0.60;;;;;;;;;;5058315;28;20444;-80
2023/10/21 12:43:57;;;;;;;1.33;0.70;;;;;;;;;;5046547;28;20434;-80
2023/10/21 12:46:27;;;;;;;1.52;0.77;;;;;;;;;;5063991;28;20573;-81
2023/10/21 12:48:57;;;;;;;3.03;0.73;;;;;;;;;;5066388;28;20421;-81
2023/10/21 12:51:41;;;;;;;1.50;0.63;;;;;;;;;;5064254;28;20433;-80
2023/10/21 12:54:11;;;;;;;2.00;0.50;;;;;;;;;;5065914;28;20440;-80
2023/10/21 12:56:42;;;;;;;1.70;0.70;;;;;;;;;;5060802;28;20425;-80
2023/10/21 12:59:09;;;;;;;1.02;0.50;;;;;;;;;;5044276;28;20514;-80
2023/10/21 13:01:39;;;;;;;5.20;0.80;;;;;;;;;;5074220;28;20432;-80
2023/10/21 13:04:06;;;;;;;0.98;0.60;;;;;;;;;;5037582;28;21431;-80
2023/10/21 13:06:34;;;;;;;0.95;0.70;;;;;;;;;;5063881;28;20436;-80
2023/10/21 13:09:19;;;;;;;1.17;0.50;;;;;;;;;;5050970;28;20430;-80
2023/10/21 13:11:49;;;;;;;1.77;0.70;;;;;;;;;;5042362;28;20443;-80
2023/10/21 13:14:20;;;;;;;0.60;0.52;;;;;;;;;;5071207;28;20813;-79
2023/10/21 13:16:48;;;;;;;1.38;0.43;;;;;;;;;;5058253;28;20434;-81
2023/10/21 13:19:15;;;;;;;1.23;0.60;;;;;;;;;;5046977;28;20791;-81
2023/10/21 13:21:42;;;;;;;1.70;0.60;;;;;;;;;;5054107;28;20439;-82
2023/10/21 13:24:10;;;;;;;2.15;0.45;;;;;;;;;;5044971;28;20429;-81
2023/10/21 13:26:37;;;;;;;0.90;0.60;;;;;;;;;;5043313;28;20452;-80
2023/10/21 13:29:04;;;;;;;2.85;0.60;;;;;;;;;;5058232;28;20434;-82
2023/10/21 13:31:33;;;;;;;1.85;0.68;;;;;;;;;;5035444;28;20439;-81
2023/10/21 13:34:02;;;;;;;2.40;0.90;;;;;;;;;;5039370;28;20788;-81
2023/10/21 13:36:33;;;;;;;2.25;0.70;;;;;;;;;;5072700;28;20486;-79
2023/10/21 13:39:15;;;;;;;1.00;0.70;;;;;;;;;;5041024;28;20496;-80
2023/10/21 13:41:42;;;;;;;2.30;0.60;;;;;;;;;;5062874;28;20508;-81
2023/10/21 13:44:09;;;;;;;1.27;0.60;;;;;;;;;;5067766;28;20433;-80
2023/10/21 13:46:36;;;;;;;1.05;0.50;;;;;;;;;;5063850;28;20431;-80
2023/10/21 13:49:09;;;;;;;1.37;0.40;;;;;;;;;;5042532;28;20535;-79
2023/10/21 13:51:36;;;;;;;0.70;0.40;;;;;;;;;;5064093;28;20446;-83
2023/10/21 13:54:04;;;;;;;1.13;0.50;;;;;;;;;;5062959;28;20435;-80
2023/10/21 13:56:31;;;;;;;0.80;0.77;;;;;;;;;;5076301;28;20430;-81
2023/10/21 13:58:59;;;;;;;0.47;0.40;;;;;;;;;;5039654;28;20521;-81
2023/10/21 14:01:26;;;;;;;1.13;0.50;;;;;;;;;;5056244;28;21003;-80
2023/10/21 14:03:53;;;;;;;2.37;0.50;;;;;;;;;;5059491;28;21617;-81
2023/10/21 14:06:21;;;;;;;1.13;0.75;;;;;;;;;;5061977;28;21422;-81
2023/10/21 14:08:48;;;;;;;1.30;0.50;;;;;;;;;;5065104;28;20427;-79
2023/10/21 14:11:16;;;;;;;2.10;0.80;;;;;;;;;;5061586;28;20766;-79
2023/10/21 14:13:47;;;;;;;0.98;0.50;;;;;;;;;;5066885;28;20928;-79
2023/10/21 14:16:14;;;;;;;1.10;0.40;;;;;;;;;;5069584;28;20431;-79
2023/10/21 14:18:43;;;;;;;1.50;0.52;;;;;;;;;;5051182;28;20491;-79
2023/10/21 14:21:12;;;;;;;0.82;0.60;;;;;;;;;;5053094;28;20980;-79
2023/10/21 14:23:41;;;;;;;1.35;0.77;;;;;;;;;;5059699;28;20476;-83
2023/10/21 14:26:11;;;;;;;0.93;0.80;;;;;;;;;;5056543;28;20520;-80
2023/10/21 14:28:42;;;;;;;1.20;0.52;;;;;;;;;;5067302;28;20501;-83
2023/10/21 14:31:09;;;;;;;3.35;0.80;;;;;;;;;;5073074;28;20516;-83
2023/10/21 14:33:37;;;;;;;1.55;0.60;;;;;;;;;;5058863;28;21423;-84
2023/10/21 14:36:10;;;;;;;1.83;0.60;;;;;;;;;;5049372;28;20457;-77
2023/10/21 14:38:38;;;;;;;1.20;0.73;;;;;;;;;;5065358;28;20513;-81
2023/10/21 14:41:07;;;;;;;0.95;0.60;;;;;;;;;;5064259;28;20792;-81
2023/10/21 14:43:34;;;;;;;1.00;0.70;;;;;;;;;;5067173;28;20541;-81
2023/10/21 14:46:01;;;;;;;1.05;0.40;;;;;;;;;;5074196;28;20457;-81
2023/10/21 14:48:28;;;;;;;1.90;0.70;;;;;;;;;;5066437;28;20979;-82
2023/10/21 14:50:55;;;;;;;1.70;0.60;;;;;;;;;;5081360;28;20486;-80
2023/10/21 14:53:23;;;;;;;0.60;0.60;;;;;;;;;;5067871;28;20462;-80
2023/10/21 14:55:50;;;;;;;2.03;0.40;;;;;;;;;;5060991;28;20433;-80
2023/10/21 14:58:24;;;;;;;1.48;0.70;;;;;;;;;;5041263;28;20435;-80
2023/10/21 15:00:54;;;;;;;0.88;0.70;;;;;;;;;;5052701;28;20441;-80
2023/10/21 15:03:24;;;;;;;1.87;0.63;;;;;;;;;;5065236;28;20431;-80
2023/10/21 15:05:54;;;;;;;1.27;0.50;;;;;;;;;;5048803;28;20518;-81
2023/10/21 15:08:23;;;;;;;1.98;0.60;;;;;;;;;;5067854;28;20929;-79
2023/10/21 15:10:52;;;;;;;1.50;0.60;;;;;;;;;;5048926;28;20455;-79
2023/10/21 15:13:22;;;;;;;2.55;0.80;;;;;;;;;;5073627;28;20431;-79
2023/10/21 15:15:50;;;;;;;3.00;0.80;;;;;;;;;;5044611;28;20820;-80
2023/10/21 15:18:18;;;;;;;1.88;0.60;;;;;;;;;;5064295;28;20436;-80
2023/10/21 15:20:45;;;;;;;1.88;0.60;;;;;;;;;;5057914;28;20444;-79
2023/10/21 15:23:12;;;;;;;1.00;0.70;;;;;;;;;;5056538;28;20854;-79
2023/10/21 15:25:40;;;;;;;1.40;0.80;;;;;;;;;;5067266;28;20476;-79
2023/10/21 15:28:11;;;;;;;1.87;0.63;;;;;;;;;;5038492;28;20428;-79
2023/10/21 15:30:38;;;;;;;0.98;0.60;;;;;;;;;;5036779;28;20443;-79
2023/10/21 15:33:05;;;;;;;2.30;0.60;;;;;;;;;;5038773;28;20780;-80